Time;durP1;ratioP1;P1;durP2;ratioP2;P2;SDS_P1;SDS_P2;PMS_P1;PMS_P2;Temp;Humidity;BMP_temperature;BMP_pressure;BME280_temperature;BME280_humidity;BME280_pressure;Samples;Min_cycle;Max_cycle;Signal;HPM_P1;HPM_P2
2022/09/09 03:55:43;;;;;;;4.03;1.60;;;;;;;19.33;85.22;100308.37;5606290;31;76833;-58
2022/09/09 03:58:45;;;;;;;4.82;1.80;;;;;;;19.33;85.22;100308.37;5583461;31;33349;-58
2022/09/09 04:01:48;;;;;;;3.08;1.55;;;;;;;18.91;87.11;100300.44;5583298;32;33210;-58
2022/09/09 04:04:50;;;;;;;2.45;1.65;;;;;;;19.00;86.74;100293.75;5583565;31;34209;-58
2022/09/09 04:07:54;;;;;;;3.30;1.95;;;;;;;18.97;86.35;100290.94;5583474;31;33151;-58
2022/09/09 04:11:02;;;;;;;4.40;1.70;;;;;;;18.84;87.10;100295.59;5583422;31;33207;-58
2022/09/09 04:14:05;;;;;;;3.97;2.10;;;;;;;18.76;86.84;100299.97;5583688;32;34323;-59
2022/09/09 04:17:08;;;;;;;4.57;2.08;;;;;;;18.76;87.92;100302.69;5583433;31;33367;-58
2022/09/09 04:20:12;;;;;;;2.87;1.73;;;;;;;18.81;87.86;100298.97;5583129;31;34243;-58
2022/09/09 04:23:15;;;;;;;2.62;2.08;;;;;;;18.92;86.97;100304.75;5583602;31;33219;-58
2022/09/09 04:26:18;;;;;;;5.25;1.90;;;;;;;19.00;85.99;100312.78;5583338;31;33235;-58
2022/09/09 04:29:20;;;;;;;2.10;1.75;;;;;;;18.93;86.45;100307.12;5583348;32;33397;-58
2022/09/09 04:32:23;;;;;;;3.37;2.08;;;;;;;19.01;86.04;100298.09;5583196;31;33791;-58
2022/09/09 04:35:27;;;;;;;3.60;2.20;;;;;;;19.03;86.03;100295.00;5583025;32;33818;-58
2022/09/09 04:38:30;;;;;;;5.37;2.10;;;;;;;18.99;86.05;100294.09;5583158;31;33270;-58
2022/09/09 04:41:32;;;;;;;5.18;1.80;;;;;;;18.84;86.94;100301.00;5583097;31;33775;-58
2022/09/09 04:44:34;;;;;;;2.22;1.83;;;;;;;18.92;86.38;100304.75;5583275;31;33783;-58
2022/09/09 04:47:37;;;;;;;2.45;1.70;;;;;;;18.92;86.33;100291.16;5581002;31;34099;-59
2022/09/09 04:50:40;;;;;;;3.72;1.80;;;;;;;18.97;86.11;100294.47;5569964;32;34266;-58
2022/09/09 04:53:44;;;;;;;5.65;2.03;;;;;;;18.99;85.47;100288.69;5565948;31;33346;-58
2022/09/09 04:56:50;;;;;;;5.80;2.20;;;;;;;18.96;85.91;100295.56;5582534;32;33245;-58
2022/09/09 04:59:53;;;;;;;3.37;2.08;;;;;;;18.92;85.85;100296.59;5568627;32;32261;-58
2022/09/09 05:02:55;;;;;;;2.62;2.00;;;;;;;18.91;84.94;100289.59;5568989;32;33722;-58
2022/09/09 05:06:08;;;;;;;4.18;2.30;;;;;;;18.80;85.92;100297.38;5561064;32;34632;-58
2022/09/09 05:09:10;;;;;;;4.75;2.05;;;;;;;18.88;85.44;100306.56;5574656;31;33815;-58
2022/09/09 05:12:13;;;;;;;2.03;1.83;;;;;;;18.93;84.81;100309.03;5588715;31;31857;-58
2022/09/09 05:15:15;;;;;;;3.65;1.83;;;;;;;18.94;84.58;100305.19;5588969;31;33717;-58
2022/09/09 05:18:17;;;;;;;2.67;2.00;;;;;;;19.01;84.91;100305.44;5589022;31;33225;-58
2022/09/09 05:21:22;;;;;;;6.43;2.70;;;;;;;18.98;85.55;100308.84;5578146;31;34465;-58
2022/09/09 05:24:25;;;;;;;5.70;2.58;;;;;;;19.08;85.81;100311.09;5563064;32;33725;-58
2022/09/09 05:27:27;;;;;;;3.97;2.35;;;;;;;19.17;86.12;100308.25;5555092;32;34455;-58
2022/09/09 05:30:30;;;;;;;6.32;2.62;;;;;;;19.14;86.59;100312.47;5568425;32;33176;-58
2022/09/09 05:33:34;;;;;;;3.05;2.35;;;;;;;19.21;85.73;100312.69;5549460;32;33088;-58
2022/09/09 05:36:37;;;;;;;8.55;2.83;;;;;;;19.32;84.53;100306.78;5555534;32;34310;-58
2022/09/09 05:39:40;;;;;;;7.85;2.33;;;;;;;19.40;84.15;100316.75;5565540;32;33390;-58
2022/09/09 05:42:43;;;;;;;4.62;2.12;;;;;;;19.43;83.77;100313.34;5547845;32;33689;-58
2022/09/09 05:45:47;;;;;;;5.03;2.12;;;;;;;19.45;85.11;100317.31;5557892;32;34338;-58
2022/09/09 05:48:51;;;;;;;3.80;2.37;;;;;;;19.51;85.28;100323.31;5565053;31;33427;-56
2022/09/09 05:51:53;;;;;;;5.87;2.00;;;;;;;19.56;85.41;100323.06;5548381;32;34382;-56
2022/09/09 05:54:59;;;;;;;6.00;2.37;;;;;;;19.62;85.44;100321.72;5563727;32;33496;-56
2022/09/09 05:58:01;;;;;;;7.22;2.40;;;;;;;19.62;85.68;100323.66;5566375;32;33721;-56
2022/09/09 06:01:13;;;;;;;8.02;2.22;;;;;;;19.67;85.05;100326.97;5567295;32;34082;-56
2022/09/09 06:04:16;;;;;;;8.57;2.30;;;;;;;19.68;84.22;100322.31;5566575;31;34218;-55
2022/09/09 06:07:18;;;;;;;2.83;2.30;;;;;;;19.78;83.77;100323.75;5559349;31;33094;-56
2022/09/09 06:10:21;;;;;;;3.05;1.77;;;;;;;19.85;84.34;100323.97;5562601;32;33293;-55
2022/09/09 06:13:24;;;;;;;3.00;1.87;;;;;;;19.95;83.01;100320.78;5558212;32;32883;-56
2022/09/09 06:16:29;;;;;;;2.10;1.70;;;;;;;20.07;82.09;100320.75;5554459;32;33659;-56
2022/09/09 06:19:31;;;;;;;5.85;2.08;;;;;;;20.13;80.95;100322.09;5547959;32;34368;-56
2022/09/09 06:22:34;;;;;;;3.95;1.67;;;;;;;20.08;81.44;100318.81;5547651;32;33833;-56
2022/09/09 06:25:36;;;;;;;3.22;1.92;;;;;;;20.13;78.72;100329.44;5563138;32;33294;-56
2022/09/09 06:28:39;;;;;;;9.85;2.40;;;;;;;20.12;81.05;100325.91;5566801;31;33467;-56
2022/09/09 06:31:41;;;;;;;5.40;2.20;;;;;;;20.21;78.85;100333.16;5566217;31;33615;-56
2022/09/09 06:34:45;;;;;;;4.65;2.08;;;;;;;20.27;78.50;100331.78;5558910;32;33410;-56
2022/09/09 06:37:48;;;;;;;1.95;1.62;;;;;;;20.31;77.89;100333.47;5566698;32;34465;-56
2022/09/09 06:40:58;;;;;;;4.15;2.00;;;;;;;20.60;72.70;100323.38;5562114;32;34213;-56
2022/09/09 06:44:00;;;;;;;1.73;1.50;;;;;;;20.56;75.10;100327.91;5566853;32;34358;-56
2022/09/09 06:47:05;;;;;;;2.70;1.80;;;;;;;20.57;78.73;100319.41;5564076;32;33358;-56
2022/09/09 06:50:10;;;;;;;2.45;1.42;;;;;;;20.51;75.04;100320.81;5564091;32;32035;-56
2022/09/09 06:53:16;;;;;;;2.85;1.70;;;;;;;20.51;76.86;100320.81;5561419;32;33374;-55
2022/09/09 06:56:32;;;;;;;4.32;1.83;;;;;;;20.51;73.88;100323.53;5561510;31;34317;-56
2022/09/09 06:59:35;;;;;;;4.00;1.87;;;;;;;20.59;73.12;100325.28;5556906;31;33130;-56
2022/09/09 07:02:39;;;;;;;5.05;1.95;;;;;;;20.65;72.36;100336.72;5547961;32;33282;-56
2022/09/09 07:05:41;;;;;;;4.53;1.90;;;;;;;20.72;74.73;100334.19;5549164;31;33421;-56
2022/09/09 07:08:48;;;;;;;3.60;1.87;;;;;;;20.67;76.57;100344.56;5574149;31;34408;-56
2022/09/09 07:11:59;;;;;;;4.55;1.70;;;;;;;20.71;76.34;100342.72;5586073;31;34192;-56
2022/09/09 07:15:02;;;;;;;4.12;1.95;;;;;;;20.63;79.02;100336.31;5567478;31;33258;-56
2022/09/09 07:18:05;;;;;;;4.20;1.80;;;;;;;20.67;78.58;100345.34;5567776;32;33596;-56
2022/09/09 07:21:12;;;;;;;4.60;2.08;;;;;;;20.60;80.56;100354.12;5567794;32;33308;-56
2022/09/09 07:24:15;;;;;;;7.05;2.17;;;;;;;20.64;80.19;100348.78;5561527;31;33386;-56
2022/09/09 07:27:18;;;;;;;6.90;1.98;;;;;;;20.75;77.56;100347.09;5568923;31;34302;-56
2022/09/09 07:30:22;;;;;;;3.75;1.77;;;;;;;20.80;76.92;100344.12;5547663;32;33283;-56
2022/09/09 07:33:30;;;;;;;5.90;1.98;;;;;;;20.80;76.91;100344.12;5555186;32;34271;-56
2022/09/09 07:36:36;;;;;;;2.22;1.90;;;;;;;20.86;78.50;100347.38;5565512;32;33199;-56
2022/09/09 07:39:38;;;;;;;3.10;2.10;;;;;;;20.88;75.94;100359.50;5566377;32;33850;-56
2022/09/09 07:42:41;;;;;;;1.65;1.40;;;;;;;20.87;75.99;100355.22;5561740;32;33358;-56
2022/09/09 07:45:43;;;;;;;5.32;1.80;;;;;;;20.83;72.75;100353.56;5566973;32;34425;-56
2022/09/09 07:48:51;;;;;;;2.47;1.77;;;;;;;20.98;70.93;100357.41;5566648;31;34156;-56
2022/09/09 07:51:54;;;;;;;3.70;1.95;;;;;;;21.00;71.24;100353.22;5566440;31;33373;-56
2022/09/09 07:54:57;;;;;;;4.57;2.03;;;;;;;21.04;73.02;100361.47;5566358;32;34352;-56
2022/09/09 07:57:59;;;;;;;2.08;1.62;;;;;;;21.10;70.95;100362.78;5557474;32;33612;-56
2022/09/09 08:01:10;;;;;;;4.62;1.80;;;;;;;21.24;70.02;100360.41;5552676;31;34421;-56
2022/09/09 08:04:18;;;;;;;3.12;1.30;;;;;;;21.29;71.54;100356.63;5586453;31;33759;-56
2022/09/09 08:07:21;;;;;;;5.00;1.40;;;;;;;21.35;64.36;100341.59;5579640;31;33375;-56
2022/09/09 08:10:24;;;;;;;3.15;1.55;;;;;;;21.49;63.13;100352.03;5549333;31;34480;-55
2022/09/09 08:13:27;;;;;;;6.25;1.33;;;;;;;21.60;64.14;100344.12;5555632;32;33889;-56
2022/09/09 08:16:32;;;;;;;2.42;1.40;;;;;;;21.59;62.50;100354.25;5552497;32;34157;-56
2022/09/09 08:19:35;;;;;;;4.97;1.15;;;;;;;21.68;62.34;100345.84;5550314;31;34373;-56
2022/09/09 08:22:40;;;;;;;5.12;1.50;;;;;;;21.75;62.04;100343.28;5558253;32;31928;-55
2022/09/09 08:25:42;;;;;;;3.72;1.00;;;;;;;21.80;61.24;100353.94;5562335;32;33481;-56
2022/09/09 08:28:45;;;;;;;1.17;1.02;;;;;;;21.89;60.00;100346.34;5566579;32;34467;-55
2022/09/09 08:31:54;;;;;;;6.60;1.42;;;;;;;21.89;63.04;100351.81;5563491;31;33434;-56
2022/09/09 08:34:57;;;;;;;7.15;1.40;;;;;;;21.97;60.23;100342.59;5556862;31;34371;-55
2022/09/09 08:38:02;;;;;;;8.32;1.40;;;;;;;22.12;59.01;100349.16;5549810;31;33517;-56
2022/09/09 08:41:49;;;;;;;1.87;1.20;;;;;;;22.12;63.23;100349.16;5561999;31;34288;-56
2022/09/09 08:45:23;;;;;;;2.30;1.27;;;;;;;22.24;60.82;100348.25;5563206;32;33725;-56
2022/09/09 08:48:45;;;;;;;1.33;1.00;;;;;;;22.32;58.90;100347.25;5558043;32;32432;-56
2022/09/09 08:51:49;;;;;;;4.25;1.25;;;;;;;22.39;57.84;100343.88;5557673;32;33653;-55
2022/09/09 08:54:55;;;;;;;1.73;1.10;;;;;;;22.38;59.42;100345.00;5556750;32;33384;-56
2022/09/09 08:58:01;;;;;;;3.62;1.00;;;;;;;22.38;56.90;100345.00;5559810;31;33681;-56
2022/09/09 09:01:40;;;;;;;1.27;1.00;;;;;;;22.55;57.15;100347.31;5570868;31;33383;-56
2022/09/09 09:05:18;;;;;;;3.22;1.25;;;;;;;22.62;57.76;100344.69;5560469;32;33613;-56
2022/09/09 09:08:47;;;;;;;3.22;1.33;;;;;;;22.66;59.19;100344.75;5554938;31;33301;-56
2022/09/09 09:12:01;;;;;;;1.65;0.93;;;;;;;22.65;60.78;100343.97;5548126;32;34659;-56
2022/09/09 09:15:16;;;;;;;2.40;1.10;;;;;;;22.67;52.08;100340.88;5548454;32;34347;-56
2022/09/09 09:18:19;;;;;;;5.47;1.23;;;;;;;22.64;59.05;100342.37;5547840;32;33415;-56
2022/09/09 09:21:36;;;;;;;4.07;1.30;;;;;;;22.67;58.20;100338.91;5550928;32;34491;-56
2022/09/09 09:24:54;;;;;;;7.90;1.55;;;;;;;22.69;59.10;100338.56;5555458;31;34503;-56
2022/09/09 09:28:00;;;;;;;2.90;1.12;;;;;;;22.75;60.99;100328.94;5551934;32;34345;-56
2022/09/09 09:31:08;;;;;;;1.80;1.23;;;;;;;22.84;60.15;100331.41;5554781;32;33259;-56
2022/09/09 09:34:12;;;;;;;4.30;1.37;;;;;;;22.90;58.44;100324.47;5554850;32;33625;-56
2022/09/09 09:37:26;;;;;;;3.87;1.65;;;;;;;22.91;63.96;100318.66;5548108;32;34117;-56
2022/09/09 09:40:30;;;;;;;2.37;1.50;;;;;;;22.92;59.83;100316.72;5555754;31;34179;-56
2022/09/09 09:43:33;;;;;;;1.60;1.37;;;;;;;23.00;56.72;100318.44;5567513;32;34273;-56
2022/09/09 09:46:37;;;;;;;2.00;1.30;;;;;;;23.02;56.71;100318.09;5567046;32;33665;-56
2022/09/09 09:49:59;;;;;;;2.62;1.10;;;;;;;23.02;54.84;100318.87;5559459;31;33587;-56
2022/09/09 09:53:06;;;;;;;1.67;1.10;;;;;;;23.10;52.11;100326.00;5556107;31;33157;-55
2022/09/09 09:56:12;;;;;;;2.22;0.93;;;;;;;23.17;49.95;100317.12;5556667;31;33662;-55
2022/09/09 09:59:42;;;;;;;3.17;0.80;;;;;;;23.20;49.47;100325.37;5564185;31;33400;-56
2022/09/09 10:02:46;;;;;;;1.20;0.85;;;;;;;23.35;51.52;100326.41;5560966;32;33699;-55
2022/09/09 10:05:50;;;;;;;3.03;0.80;;;;;;;23.50;48.55;100321.16;5554245;32;33677;-56
2022/09/09 10:08:52;;;;;;;3.83;0.90;;;;;;;23.51;51.64;100309.84;5552934;32;33865;-56
2022/09/09 10:12:23;;;;;;;1.17;0.90;;;;;;;23.52;51.03;100314.16;5558815;31;33836;-56
2022/09/09 10:15:45;;;;;;;1.95;0.80;;;;;;;23.51;49.47;100304.38;5567444;31;33674;-56
2022/09/09 10:19:08;;;;;;;3.58;1.05;;;;;;;23.65;48.04;100312.00;5550364;31;32140;-56
2022/09/09 10:22:27;;;;;;;1.58;0.80;;;;;;;23.64;48.17;100300.25;5568436;31;33710;-56
2022/09/09 10:25:50;;;;;;;2.25;0.80;;;;;;;23.74;46.17;100306.25;5560348;32;34356;-56
2022/09/09 10:29:11;;;;;;;1.42;0.70;;;;;;;23.78;44.13;100307.91;5558532;32;33406;-55
2022/09/09 10:32:40;;;;;;;2.53;0.98;;;;;;;23.81;44.64;100306.38;5557614;32;33738;-56
2022/09/09 10:35:57;;;;;;;2.87;0.80;;;;;;;23.92;44.32;100310.00;5555500;31;33146;-56
2022/09/09 10:39:29;;;;;;;3.45;0.90;;;;;;;24.10;43.52;100304.75;5561668;32;33617;-56
2022/09/09 10:42:32;;;;;;;2.62;1.00;;;;;;;24.16;44.49;100303.25;5546145;32;33533;-56
2022/09/09 10:45:57;;;;;;;1.77;0.80;;;;;;;24.10;43.38;100304.75;5548622;32;33754;-56
2022/09/09 10:49:23;;;;;;;2.00;0.82;;;;;;;24.10;42.18;100304.75;5552757;32;33328;-56
2022/09/09 10:52:47;;;;;;;1.40;0.85;;;;;;;24.14;42.60;100300.91;5551379;32;31885;-56
2022/09/09 10:56:05;;;;;;;1.23;0.80;;;;;;;24.18;43.33;100298.19;5556707;32;33684;-56
2022/09/09 10:59:20;;;;;;;1.12;0.68;;;;;;;24.07;43.92;100298.09;5547816;32;33280;-56
2022/09/09 11:02:31;;;;;;;2.67;1.00;;;;;;;24.29;40.75;100299.09;5546949;32;34413;-56
2022/09/09 11:05:42;;;;;;;1.58;0.80;;;;;;;24.41;39.19;100297.31;5547420;32;33665;-56
2022/09/09 11:08:45;;;;;;;1.12;0.80;;;;;;;24.36;39.98;100292.91;5551958;31;33569;-56
2022/09/09 11:11:54;;;;;;;1.10;0.80;;;;;;;24.29;42.05;100285.41;5565372;31;33740;-56
2022/09/09 11:15:06;;;;;;;1.35;0.82;;;;;;;24.35;41.24;100286.62;5564375;31;34791;-56
2022/09/09 11:18:16;;;;;;;1.10;1.00;;;;;;;24.39;43.82;100284.72;5558558;32;33601;-56
2022/09/09 11:21:49;;;;;;;1.37;0.90;;;;;;;24.44;41.43;100286.38;5548118;32;33267;-56
2022/09/09 11:25:00;;;;;;;1.80;0.90;;;;;;;24.54;41.82;100284.91;5540690;31;33710;-56
2022/09/09 11:28:36;;;;;;;1.30;0.77;;;;;;;24.54;41.82;100284.91;5572020;31;34249;-56
2022/09/09 11:31:56;;;;;;;2.03;1.00;;;;;;;24.57;46.85;100286.91;5547844;32;33497;-56
2022/09/09 11:35:23;;;;;;;1.37;0.90;;;;;;;24.49;48.07;100283.28;5575496;31;33121;-56
2022/09/09 11:38:46;;;;;;;1.35;0.90;;;;;;;24.42;45.21;100285.16;5567937;32;33739;-56
2022/09/09 11:41:48;;;;;;;0.80;0.80;;;;;;;24.33;45.53;100283.47;5567965;32;33741;-56
2022/09/09 11:44:54;;;;;;;1.37;0.90;;;;;;;24.32;43.17;100284.66;5568391;31;34394;-56
2022/09/09 11:47:59;;;;;;;1.40;0.95;;;;;;;24.34;41.06;100281.56;5586899;31;34373;-56
2022/09/09 11:51:04;;;;;;;1.37;1.20;;;;;;;24.42;41.89;100271.47;5585100;31;34294;-56
2022/09/09 11:54:30;;;;;;;2.08;0.90;;;;;;;24.47;43.83;100282.88;5566166;31;33750;-56
2022/09/09 11:57:35;;;;;;;1.75;0.90;;;;;;;24.50;41.33;100278.59;5566941;32;34300;-56
2022/09/09 12:00:48;;;;;;;4.95;1.30;;;;;;;24.39;43.34;100267.50;5566027;32;33960;-56
2022/09/09 12:03:55;;;;;;;8.13;1.50;;;;;;;24.52;45.03;100268.03;5567396;32;34405;-56
2022/09/09 12:07:20;;;;;;;3.80;1.30;;;;;;;24.56;43.74;100261.41;5567452;32;33766;-56
2022/09/09 12:10:41;;;;;;;2.05;1.15;;;;;;;24.46;44.39;100270.34;5567669;32;33801;-56
2022/09/09 12:13:52;;;;;;;1.10;0.90;;;;;;;24.39;43.79;100270.22;5567392;32;33788;-56
2022/09/09 12:16:55;;;;;;;4.10;1.05;;;;;;;24.37;45.05;100278.84;5569711;32;33827;-56
2022/09/09 12:20:12;;;;;;;1.73;1.35;;;;;;;24.32;46.19;100286.59;5566005;32;33693;-56
2022/09/09 12:23:37;;;;;;;1.20;0.98;;;;;;;24.44;46.06;100280.91;5566760;31;33741;-56
2022/09/09 12:26:53;;;;;;;2.08;1.20;;;;;;;24.50;46.76;100284.06;5561752;32;33618;-56
2022/09/09 12:30:10;;;;;;;1.30;1.20;;;;;;;24.61;47.35;100274.00;5566506;31;33875;-56
2022/09/09 12:33:17;;;;;;;2.58;1.15;;;;;;;24.62;46.91;100272.84;5584137;31;34428;-56
2022/09/09 12:36:24;;;;;;;1.20;1.10;;;;;;;24.63;46.34;100265.38;5568730;31;33919;-56
2022/09/09 12:39:33;;;;;;;2.47;1.45;;;;;;;24.58;46.74;100259.09;5565154;32;33681;-56
2022/09/09 12:42:40;;;;;;;4.62;1.25;;;;;;;24.58;46.78;100252.84;5559606;32;34319;-56
2022/09/09 12:45:42;;;;;;;1.10;1.00;;;;;;;24.63;46.66;100255.22;5572494;31;33628;-56
2022/09/09 12:48:45;;;;;;;1.62;1.12;;;;;;;24.57;47.94;100257.53;5574547;31;34353;-56
2022/09/09 12:51:49;;;;;;;1.98;1.20;;;;;;;24.58;46.81;100250.87;5550915;31;33722;-56
2022/09/09 12:54:51;;;;;;;2.45;1.77;;;;;;;24.79;46.70;100238.50;5577091;31;33732;-56
2022/09/09 12:57:53;;;;;;;2.08;1.87;;;;;;;24.64;47.29;100239.59;5589451;31;33830;-56
2022/09/09 13:00:57;;;;;;;1.55;1.10;;;;;;;24.61;47.65;100241.13;5563025;31;34314;-56
2022/09/09 13:03:59;;;;;;;2.87;1.30;;;;;;;24.50;47.22;100237.47;5566699;32;33670;-56
2022/09/09 13:07:07;;;;;;;2.10;1.10;;;;;;;24.53;46.12;100232.03;5569806;32;34343;-56
2022/09/09 13:10:14;;;;;;;1.20;1.10;;;;;;;24.49;46.12;100217.50;5569864;32;33822;-56
2022/09/09 13:13:36;;;;;;;1.42;1.33;;;;;;;24.41;45.86;100215.09;5559483;31;34407;-56
2022/09/09 13:16:39;;;;;;;4.65;1.33;;;;;;;24.41;46.22;100212.38;5555705;31;33717;-56
2022/09/09 13:19:50;;;;;;;3.50;2.00;;;;;;;24.50;45.98;100210.06;5561984;31;33626;-56
2022/09/09 13:22:54;;;;;;;5.90;1.48;;;;;;;24.53;46.31;100212.06;5559374;32;33785;-56
2022/09/09 13:26:02;;;;;;;2.00;1.10;;;;;;;24.60;46.61;100203.91;5550159;32;33641;-56
2022/09/09 13:29:17;;;;;;;10.07;1.60;;;;;;;24.78;43.61;100209.53;5553612;31;34812;-55
2022/09/09 13:32:20;;;;;;;6.47;1.23;;;;;;;24.77;46.11;100203.25;5561009;32;33657;-56
2022/09/09 13:35:23;;;;;;;1.73;1.20;;;;;;;24.71;42.50;100201.25;5568832;32;33577;-56
2022/09/09 13:38:30;;;;;;;4.68;1.17;;;;;;;24.71;43.08;100202.03;5565834;32;33672;-56
2022/09/09 13:41:41;;;;;;;0.80;0.80;;;;;;;24.69;42.22;100198.88;5563236;32;33947;-56
2022/09/09 13:44:46;;;;;;;5.15;0.98;;;;;;;24.65;42.13;100198.06;5567156;32;33618;-56
2022/09/09 13:47:52;;;;;;;5.22;1.08;;;;;;;24.59;41.69;100192.16;5569167;32;33653;-56
2022/09/09 13:51:06;;;;;;;5.15;1.00;;;;;;;24.63;41.66;100183.94;5549788;32;34416;-56
2022/09/09 13:54:10;;;;;;;7.87;1.62;;;;;;;24.76;40.17;100182.47;5549776;32;34312;-56
2022/09/09 13:57:21;;;;;;;6.85;1.50;;;;;;;24.80;42.93;100177.03;5550147;32;33935;-56
2022/09/09 14:00:25;;;;;;;3.03;0.90;;;;;;;24.83;47.80;100182.56;5568363;32;34296;-56
2022/09/09 14:03:27;;;;;;;4.40;1.37;;;;;;;24.92;42.60;100178.69;5569142;32;33803;-56
2022/09/09 14:06:29;;;;;;;8.13;1.75;;;;;;;24.96;42.37;100166.56;5569100;32;33804;-56
2022/09/09 14:09:32;;;;;;;3.40;1.30;;;;;;;24.98;43.16;100160.69;5559755;32;33629;-56
2022/09/09 14:12:36;;;;;;;5.05;1.02;;;;;;;25.01;42.32;100160.72;5558742;31;33624;-56
2022/09/09 14:15:38;;;;;;;3.37;1.10;;;;;;;24.92;44.88;100159.47;5553691;31;33592;-56
2022/09/09 14:18:40;;;;;;;5.47;1.27;;;;;;;24.84;41.98;100148.47;5569377;31;33726;-56
2022/09/09 14:21:43;;;;;;;4.10;1.20;;;;;;;24.75;43.70;100152.72;5564727;31;33615;-56
2022/09/09 14:24:46;;;;;;;2.92;1.00;;;;;;;24.68;44.75;100155.41;5555885;31;34683;-56
2022/09/09 14:27:51;;;;;;;4.22;1.37;;;;;;;24.78;41.89;100154.72;5558548;31;33354;-56
2022/09/09 14:30:53;;;;;;;2.83;1.20;;;;;;;24.81;41.58;100162.16;5570032;31;33771;-56
2022/09/09 14:33:55;;;;;;;2.70;1.10;;;;;;;24.78;43.45;100158.22;5570268;31;34361;-56
2022/09/09 14:36:58;;;;;;;1.45;0.90;;;;;;;24.70;44.09;100153.88;5562838;31;34428;-56
2022/09/09 14:40:00;;;;;;;1.10;1.00;;;;;;;24.71;45.94;100151.91;5549766;31;34307;-56
2022/09/09 14:43:04;;;;;;;1.42;0.90;;;;;;;24.74;43.09;100154.69;5557114;31;33879;-56
2022/09/09 14:46:12;;;;;;;2.15;1.08;;;;;;;24.74;42.53;100148.41;5552241;32;33729;-56
2022/09/09 14:49:15;;;;;;;4.47;1.00;;;;;;;24.68;43.27;100149.94;5555744;32;33395;-56
2022/09/09 14:52:17;;;;;;;1.95;1.00;;;;;;;24.73;43.05;100146.81;5549740;32;33739;-56
2022/09/09 14:55:19;;;;;;;2.90;1.00;;;;;;;24.70;42.99;100147.59;5547895;32;34090;-56
